Wheeling Ohio County Airport
KHLG : now visible

Airfield :











YOU CAN JOIN US ON...

 
LOGIN :

Register | Disclaimer

   EN    FR    IT 

 









Legend :    VFR   Marginal VFR   IFR   Intensive IFR   Very Intensive IFR
Visi :
Ceiling :
>= 8 km
>= 3000ft
5 to 8 km
1000 to 3000 ft
1500m to 5 km
500 to 1000 ft
800 to 1500m
200 to 500 ft
< 800m
< 200 ft
Symbols :   Thunderstorms  Fog  Heavy snow  Heavy precipitations  Wind > 20 kt






- Airport Elevation : 1195 ft


KHLG - Wheeling Ohio County

CURRENT METAR :
  • 280953Z AUTO 27009KT 10SM SCT011 OVC019 05/03 A2978 RMK AO2 SLP089 T00500028

EXPIRED METARs :
  • 280853Z AUTO 27009KT 10SM BKN008 OVC022 05/03 A2975 RMK AO2 CIG 007V012 SLP078 60000 T00500033 51036
  • 280753Z AUTO 28007KT 10SM OVC006 05/04 A2971 RMK AO2 RAE10 SLP067 P0000 T00500039

TAF KHLG
Valid from the 28 at 06:00 until the 29 at 06:00 UTC


280532Z 2806/2906 28012G21KT P6SM OVC015
FM281400 29010KT P6SM OVC015
FM282000 30005KT P6SM BKN020
FM290000 29003KT P6SM SCT040
KZOB FIR / North America



MET'MAP, your aeronautical weather chart ! - Copyright ORBIFLY December 2007 - Disclaimer

ORBIFLY MET'MAP TEAM :

Programming & Development : Alexandra Zaïnal
Original concept : Baudouin d'Aumeries
Technical & hardware support : Manuel Goepfert
Assistance : Marc-Olivier Méhu




SOURCES & CREDITS :

   NOAA       Earth
Advisory